RYR612 EKCH-EGSS
Flight info
| Callsign | RYR612 |
|---|---|
| Flight time | N/A |
| Altitude | 32000 |
| Route | LANGO DCT KESUR DCT LONAM DCT BINBO DCT AKOKO N866 KUBAX Z150 MEGEL |
| Aircraft | B738/M-SDE2E3FGHIRWXY/LB1 |
Departure
| Time | N/A |
|---|---|
| Airport | Copenhagen Kastrup Airport (EKCH) |
Arrival
| Time | 2026-05-06 11:34 |
|---|---|
| Airport | London Stansted Airport (EGSS) |
| Time | Latitude | Longitude | Altitude | Speed | Heading |
|---|---|---|---|---|---|
| 2026-05-06 10:59 | 53.53154 | 3.51748 | 31973 ft | 439 kts | 219° |
| 2026-05-06 10:59 | 53.48419 | 3.45282 | 31973 ft | 438 kts | 219° |
| 2026-05-06 11:00 | 53.43680 | 3.38827 | 31973 ft | 438 kts | 219° |
| 2026-05-06 11:00 | 53.38789 | 3.32746 | 31957 ft | 439 kts | 209° |
| 2026-05-06 11:01 | 53.33325 | 3.28200 | 31974 ft | 439 kts | 207° |
| 2026-05-06 11:01 | 53.27897 | 3.23672 | 31961 ft | 439 kts | 207° |
| 2026-05-06 11:02 | 53.22450 | 3.19064 | 31964 ft | 439 kts | 207° |
| 2026-05-06 11:02 | 53.17006 | 3.14444 | 31965 ft | 439 kts | 207° |
| 2026-05-06 11:03 | 53.11558 | 3.09839 | 31966 ft | 439 kts | 207° |
| 2026-05-06 11:03 | 53.06101 | 3.05262 | 31958 ft | 439 kts | 207° |
| 2026-05-06 11:04 | 53.00638 | 3.00691 | 31966 ft | 440 kts | 207° |
| 2026-05-06 11:04 | 52.95189 | 2.96047 | 31951 ft | 440 kts | 212° |
| 2026-05-06 11:05 | 52.90417 | 2.89744 | 31967 ft | 440 kts | 223° |
| 2026-05-06 11:05 | 52.85922 | 2.82847 | 31958 ft | 441 kts | 223° |
| 2026-05-06 11:06 | 52.81391 | 2.75975 | 31957 ft | 442 kts | 222° |
| 2026-05-06 11:06 | 52.79101 | 2.72534 | 31567 ft | 445 kts | 222° |
| 2026-05-06 11:06 | 52.76832 | 2.69136 | 31124 ft | 438 kts | 222° |
| 2026-05-06 11:06 | 52.74590 | 2.65786 | 30698 ft | 431 kts | 222° |
| 2026-05-06 11:07 | 52.72377 | 2.62485 | 30219 ft | 426 kts | 222° |
| 2026-05-06 11:07 | 52.70190 | 2.59227 | 29719 ft | 421 kts | 222° |
| 2026-05-06 11:07 | 52.68027 | 2.56008 | 29231 ft | 416 kts | 222° |
| 2026-05-06 11:07 | 52.65898 | 2.52844 | 28774 ft | 410 kts | 222° |
| 2026-05-06 11:08 | 52.63794 | 2.49721 | 28326 ft | 404 kts | 222° |
| 2026-05-06 11:08 | 52.61724 | 2.46644 | 27872 ft | 399 kts | 223° |
| 2026-05-06 11:08 | 52.59672 | 2.43604 | 27412 ft | 394 kts | 222° |
| 2026-05-06 11:08 | 52.57645 | 2.40615 | 26973 ft | 390 kts | 222° |
| 2026-05-06 11:09 | 52.55639 | 2.37653 | 26533 ft | 386 kts | 222° |
| 2026-05-06 11:09 | 52.53653 | 2.34724 | 26100 ft | 382 kts | 222° |
| 2026-05-06 11:09 | 52.51687 | 2.31828 | 25673 ft | 378 kts | 222° |
| 2026-05-06 11:09 | 52.49736 | 2.28967 | 25229 ft | 375 kts | 222° |
| 2026-05-06 11:10 | 52.47795 | 2.26136 | 24810 ft | 372 kts | 222° |
| 2026-05-06 11:10 | 52.45869 | 2.23332 | 24401 ft | 369 kts | 222° |
| 2026-05-06 11:10 | 52.43955 | 2.20546 | 23991 ft | 366 kts | 222° |
| 2026-05-06 11:10 | 52.42056 | 2.17785 | 23574 ft | 364 kts | 222° |
| 2026-05-06 11:11 | 52.40167 | 2.15040 | 23102 ft | 362 kts | 222° |
| 2026-05-06 11:11 | 52.38315 | 2.12352 | 22652 ft | 359 kts | 222° |
| 2026-05-06 11:11 | 52.36454 | 2.09655 | 22239 ft | 356 kts | 222° |
| 2026-05-06 11:11 | 52.34781 | 2.06716 | 21789 ft | 352 kts | 238° |
| 2026-05-06 11:12 | 52.33693 | 2.03149 | 21443 ft | 350 kts | 246° |
| 2026-05-06 11:12 | 52.32750 | 1.99455 | 21003 ft | 356 kts | 248° |
| 2026-05-06 11:12 | 52.31805 | 1.95682 | 20568 ft | 360 kts | 248° |
| 2026-05-06 11:12 | 52.30840 | 1.91890 | 20145 ft | 362 kts | 247° |
| 2026-05-06 11:13 | 52.29859 | 1.88107 | 19708 ft | 361 kts | 247° |
| 2026-05-06 11:13 | 52.28875 | 1.84355 | 19285 ft | 359 kts | 247° |
| 2026-05-06 11:13 | 52.27890 | 1.80618 | 18864 ft | 357 kts | 247° |
| 2026-05-06 11:13 | 52.26901 | 1.76899 | 18428 ft | 356 kts | 247° |
| 2026-05-06 11:14 | 52.25913 | 1.73192 | 17985 ft | 355 kts | 247° |
| 2026-05-06 11:14 | 52.24928 | 1.69502 | 17530 ft | 354 kts | 247° |
| 2026-05-06 11:14 | 52.24277 | 1.67065 | 17237 ft | 354 kts | 247° |
| 2026-05-06 11:14 | 52.23295 | 1.63393 | 16809 ft | 353 kts | 247° |
| 2026-05-06 11:15 | 52.22317 | 1.59739 | 16391 ft | 349 kts | 247° |
| 2026-05-06 11:15 | 52.21038 | 1.54967 | 15839 ft | 345 kts | 247° |
| 2026-05-06 11:15 | 52.20081 | 1.51402 | 15442 ft | 342 kts | 247° |
| 2026-05-06 11:15 | 52.19129 | 1.47863 | 15039 ft | 339 kts | 247° |
| 2026-05-06 11:16 | 52.18492 | 1.45495 | 14771 ft | 337 kts | 247° |
| 2026-05-06 11:16 | 52.17551 | 1.42007 | 14373 ft | 335 kts | 248° |
| 2026-05-06 11:16 | 52.16616 | 1.38543 | 13993 ft | 333 kts | 248° |
| 2026-05-06 11:16 | 52.15689 | 1.35109 | 13576 ft | 331 kts | 247° |
| 2026-05-06 11:17 | 52.14776 | 1.31736 | 13145 ft | 329 kts | 248° |
| 2026-05-06 11:17 | 52.13845 | 1.28299 | 12742 ft | 326 kts | 248° |
| 2026-05-06 11:17 | 52.12942 | 1.24977 | 12361 ft | 324 kts | 248° |
| 2026-05-06 11:17 | 52.12022 | 1.21591 | 11974 ft | 321 kts | 248° |
| 2026-05-06 11:18 | 52.11276 | 1.18265 | 11744 ft | 314 kts | 255° |
| 2026-05-06 11:18 | 52.10709 | 1.14885 | 11534 ft | 307 kts | 257° |
| 2026-05-06 11:18 | 52.10192 | 1.11554 | 11308 ft | 301 kts | 258° |
| 2026-05-06 11:18 | 52.09686 | 1.08294 | 11116 ft | 296 kts | 257° |
| 2026-05-06 11:19 | 52.09176 | 1.05076 | 10882 ft | 291 kts | 257° |
| 2026-05-06 11:19 | 52.08668 | 1.01927 | 10691 ft | 287 kts | 257° |
| 2026-05-06 11:19 | 52.08156 | 0.98795 | 10497 ft | 286 kts | 257° |
| 2026-05-06 11:19 | 52.07640 | 0.95672 | 10300 ft | 285 kts | 257° |
| 2026-05-06 11:20 | 52.06949 | 0.91537 | 10037 ft | 282 kts | 257° |
| 2026-05-06 11:20 | 52.06610 | 0.89505 | 9904 ft | 281 kts | 257° |
| 2026-05-06 11:20 | 52.06098 | 0.86449 | 9685 ft | 280 kts | 256° |
| 2026-05-06 11:20 | 52.05587 | 0.83407 | 9481 ft | 278 kts | 257° |
| 2026-05-06 11:21 | 52.05077 | 0.80378 | 9278 ft | 278 kts | 256° |
| 2026-05-06 11:21 | 52.04664 | 0.77342 | 9248 ft | 271 kts | 263° |
| 2026-05-06 11:21 | 52.04390 | 0.74302 | 9066 ft | 277 kts | 264° |
| 2026-05-06 11:21 | 52.04131 | 0.71149 | 8756 ft | 284 kts | 264° |
| 2026-05-06 11:22 | 52.03865 | 0.67964 | 8538 ft | 285 kts | 264° |
| 2026-05-06 11:22 | 52.03589 | 0.64775 | 8327 ft | 285 kts | 263° |
| 2026-05-06 11:22 | 52.03307 | 0.61605 | 8116 ft | 283 kts | 264° |
| 2026-05-06 11:22 | 52.03023 | 0.58463 | 7920 ft | 279 kts | 263° |
| 2026-05-06 11:23 | 52.02738 | 0.55355 | 7728 ft | 278 kts | 263° |
| 2026-05-06 11:23 | 52.02449 | 0.52243 | 7537 ft | 279 kts | 263° |
| 2026-05-06 11:23 | 52.02157 | 0.49127 | 7344 ft | 280 kts | 264° |
| 2026-05-06 11:23 | 52.01863 | 0.46005 | 7150 ft | 280 kts | 264° |
| 2026-05-06 11:24 | 52.01574 | 0.42873 | 6955 ft | 281 kts | 264° |
| 2026-05-06 11:24 | 52.01282 | 0.39736 | 6761 ft | 282 kts | 264° |
| 2026-05-06 11:24 | 52.00982 | 0.36599 | 6567 ft | 282 kts | 263° |
| 2026-05-06 11:24 | 52.00680 | 0.33448 | 6358 ft | 282 kts | 263° |
| 2026-05-06 11:25 | 52.00380 | 0.30316 | 6149 ft | 280 kts | 263° |
| 2026-05-06 11:25 | 51.99819 | 0.27312 | 6002 ft | 282 kts | 240° |
| 2026-05-06 11:25 | 51.98572 | 0.24904 | 6012 ft | 285 kts | 224° |
| 2026-05-06 11:25 | 51.97131 | 0.22725 | 6005 ft | 282 kts | 223° |
| 2026-05-06 11:26 | 51.95667 | 0.20561 | 5616 ft | 288 kts | 223° |
| 2026-05-06 11:26 | 51.94199 | 0.18374 | 5214 ft | 284 kts | 224° |
| 2026-05-06 11:26 | 51.92761 | 0.16219 | 4807 ft | 279 kts | 224° |
| 2026-05-06 11:26 | 51.91351 | 0.14097 | 4417 ft | 274 kts | 224° |
| 2026-05-06 11:27 | 51.89966 | 0.12010 | 4041 ft | 270 kts | 225° |
| 2026-05-06 11:27 | 51.88608 | 0.09949 | 3673 ft | 266 kts | 225° |
| 2026-05-06 11:27 | 51.87266 | 0.07929 | 3318 ft | 262 kts | 225° |
| 2026-05-06 11:27 | 51.85930 | 0.05929 | 2989 ft | 258 kts | 225° |
| 2026-05-06 11:28 | 51.84662 | 0.04002 | 2933 ft | 243 kts | 226° |
| 2026-05-06 11:28 | 51.83448 | 0.02145 | 2890 ft | 239 kts | 226° |
| 2026-05-06 11:28 | 51.82230 | 0.00286 | 2858 ft | 237 kts | 226° |
| 2026-05-06 11:28 | 51.81045 | -0.01517 | 2827 ft | 229 kts | 224° |
| 2026-05-06 11:29 | 51.79709 | -0.02734 | 2772 ft | 220 kts | 189° |
| 2026-05-06 11:29 | 51.78232 | -0.02479 | 2748 ft | 218 kts | 155° |
| 2026-05-06 11:29 | 51.76958 | -0.01143 | 2750 ft | 217 kts | 131° |
| 2026-05-06 11:29 | 51.76180 | 0.00830 | 2659 ft | 208 kts | 103° |
| 2026-05-06 11:30 | 51.76066 | 0.03043 | 2535 ft | 190 kts | 75° |
| 2026-05-06 11:30 | 51.76488 | 0.04972 | 2519 ft | 179 kts | 59° |
| 2026-05-06 11:30 | 51.77237 | 0.06475 | 2502 ft | 168 kts | 38° |
| 2026-05-06 11:30 | 51.78110 | 0.07772 | 2503 ft | 173 kts | 40° |
| 2026-05-06 11:31 | 51.78990 | 0.09122 | 2517 ft | 174 kts | 40° |
| 2026-05-06 11:31 | 51.79846 | 0.10423 | 2500 ft | 164 kts | 39° |
| 2026-05-06 11:31 | 51.80669 | 0.11665 | 2337 ft | 157 kts | 39° |
| 2026-05-06 11:31 | 51.81434 | 0.12820 | 2151 ft | 148 kts | 38° |
| 2026-05-06 11:32 | 51.82178 | 0.13942 | 1942 ft | 145 kts | 39° |
| 2026-05-06 11:32 | 51.82912 | 0.15047 | 1743 ft | 145 kts | 38° |
| 2026-05-06 11:32 | 51.83650 | 0.16156 | 1557 ft | 145 kts | 38° |
| 2026-05-06 11:32 | 51.84385 | 0.17266 | 1344 ft | 145 kts | 40° |
| 2026-05-06 11:33 | 51.85112 | 0.18390 | 1129 ft | 143 kts | 39° |
| 2026-05-06 11:33 | 51.85842 | 0.19471 | 935 ft | 143 kts | 38° |
| 2026-05-06 11:33 | 51.86582 | 0.20591 | 715 ft | 147 kts | 39° |
| 2026-05-06 11:33 | 51.87329 | 0.21723 | 486 ft | 147 kts | 39° |
| 2026-05-06 11:34 | 51.88063 | 0.22823 | 347 ft | 136 kts | 39° |
| 2026-05-06 11:34 | 51.88667 | 0.23727 | 342 ft | 97 kts | 43° |
| 2026-05-06 11:34 | 51.89052 | 0.24304 | 353 ft | 53 kts | 43° |
| 2026-05-06 11:34 | 51.89231 | 0.24583 | 356 ft | 18 kts | 53° |
| 2026-05-06 11:35 | 51.89218 | 0.24773 | 352 ft | 19 kts | 128° |
| 2026-05-06 11:35 | 51.89153 | 0.24905 | 349 ft | 12 kts | 99° |
| 2026-05-06 11:35 | 51.89198 | 0.25016 | 348 ft | 12 kts | 46° |
| 2026-05-06 11:35 | 51.89246 | 0.25127 | 357 ft | 12 kts | 57° |
| 2026-05-06 11:36 | 51.89307 | 0.25245 | 348 ft | 14 kts | 40° |
| 2026-05-06 11:36 | 51.89383 | 0.25358 | 348 ft | 15 kts | 44° |
| 2026-05-06 11:36 | 51.89409 | 0.25499 | 350 ft | 14 kts | 121° |
| 2026-05-06 11:36 | 51.89390 | 0.25597 | 348 ft | 8 kts | 58° |
| 2026-05-06 11:37 | 51.89425 | 0.25688 | 351 ft | 11 kts | 102° |
| 2026-05-06 11:37 | 51.89411 | 0.25752 | 353 ft | 3 kts | 108° |
| 2026-05-06 11:37 | 51.89407 | 0.25772 | 348 ft | 1 kts | 107° |
| 2026-05-06 11:37 | 51.89407 | 0.25774 | 348 ft | 0 kts | 107° |